Time;durP1;ratioP1;P1;durP2;ratioP2;P2;SDS_P1;SDS_P2;PMS_P1;PMS_P2;Temp;Humidity;BMP_temperature;BMP_pressure;BME280_temperature;BME280_humidity;BME280_pressure;Samples;Min_cycle;Max_cycle;Signal;HPM_P1;HPM_P2
2022/07/21 00:01:49;;;;;;;8.52;6.70;;;22.80;99.90;;;;;;5092089;28;20036;-87
2022/07/21 00:04:17;;;;;;;9.83;7.10;;;22.80;99.90;;;;;;5091944;28;20081;-88
2022/07/21 00:06:44;;;;;;;8.23;6.50;;;22.80;99.90;;;;;;5091768;28;20550;-88
2022/07/21 00:09:18;;;;;;;8.00;6.38;;;22.80;99.90;;;;;;5108811;22;20048;-72
2022/07/21 00:11:45;;;;;;;10.80;6.78;;;22.80;99.90;;;;;;5032757;28;20068;-71
2022/07/21 00:14:11;;;;;;;8.95;7.15;;;22.90;99.90;;;;;;5052778;28;20127;-71
2022/07/21 00:16:39;;;;;;;8.70;7.18;;;22.80;99.90;;;;;;5052990;28;20032;-71
2022/07/21 00:19:05;;;;;;;12.65;7.03;;;22.90;99.90;;;;;;5052629;28;20033;-71
2022/07/21 00:21:31;;;;;;;9.38;7.05;;;22.80;99.90;;;;;;5052741;28;20044;-71
2022/07/21 00:23:57;;;;;;;10.32;7.22;;;22.80;99.90;;;;;;5052664;28;20100;-71
2022/07/21 00:26:23;;;;;;;8.93;7.15;;;22.70;99.90;;;;;;5052585;28;20374;-71
2022/07/21 00:28:49;;;;;;;9.57;7.57;;;22.60;99.90;;;;;;5052306;28;20496;-71
2022/07/21 00:31:15;;;;;;;10.93;7.43;;;22.50;99.90;;;;;;5051135;28;20477;-71
2022/07/21 00:33:41;;;;;;;8.57;7.28;;;22.50;99.90;;;;;;5052965;28;20037;-71
2022/07/21 00:36:08;;;;;;;10.07;6.88;;;22.50;99.90;;;;;;5052354;28;20555;-72
2022/07/21 00:38:34;;;;;;;8.55;6.88;;;22.50;99.90;;;;;;5052217;28;20025;-71
2022/07/21 00:41:00;;;;;;;10.90;7.53;;;22.60;99.90;;;;;;5052235;28;20029;-71
2022/07/21 00:43:26;;;;;;;10.50;7.10;;;22.60;99.90;;;;;;5052333;28;20033;-71
2022/07/21 00:45:53;;;;;;;10.68;7.05;;;22.60;99.90;;;;;;5052273;28;20029;-71
2022/07/21 00:48:19;;;;;;;9.75;7.47;;;22.60;99.90;;;;;;5052130;28;20037;-72
2022/07/21 00:50:45;;;;;;;8.07;6.85;;;22.70;99.90;;;;;;5051866;28;20044;-71
2022/07/21 00:53:11;;;;;;;9.48;7.05;;;22.60;99.90;;;;;;5052075;28;20029;-71
2022/07/21 00:55:37;;;;;;;9.60;7.22;;;22.60;99.90;;;;;;5051412;28;20037;-71
2022/07/21 00:58:05;;;;;;;10.00;7.15;;;22.60;99.90;;;;;;5052003;28;20451;-71
2022/07/21 01:00:31;;;;;;;10.45;7.10;;;22.60;99.90;;;;;;5050499;28;20025;-71
2022/07/21 01:02:58;;;;;;;10.75;6.82;;;22.50;99.90;;;;;;5052005;28;20025;-71
2022/07/21 01:05:24;;;;;;;10.38;7.40;;;22.50;99.90;;;;;;5051943;28;20029;-71
2022/07/21 01:07:52;;;;;;;11.57;7.40;;;22.40;99.90;;;;;;5051546;28;20029;-71
2022/07/21 01:10:21;;;;;;;9.23;6.43;;;22.40;99.90;;;;;;5051433;28;20035;-71
2022/07/21 01:12:47;;;;;;;9.48;6.90;;;22.40;99.90;;;;;;5051754;28;20124;-71
2022/07/21 01:15:14;;;;;;;10.73;7.20;;;22.40;99.90;;;;;;5051577;28;20059;-71
2022/07/21 01:17:41;;;;;;;12.30;8.02;;;22.30;99.90;;;;;;5051470;28;20025;-71
2022/07/21 01:20:11;;;;;;;9.45;7.43;;;22.20;99.90;;;;;;5051649;28;20029;-71
2022/07/21 01:22:39;;;;;;;10.43;7.38;;;22.20;99.90;;;;;;5051329;28;20561;-71
2022/07/21 01:25:05;;;;;;;;;;;22.30;99.90;;;;;;5051923;28;20052;-71
2022/07/21 01:27:32;;;;;;;11.23;7.72;;;22.20;99.90;;;;;;5051352;28;20377;-71
2022/07/21 01:29:58;;;;;;;11.63;7.90;;;22.20;99.90;;;;;;5051350;28;20063;-71
2022/07/21 01:32:25;;;;;;;9.60;7.43;;;22.20;99.90;;;;;;5051378;28;20032;-72
2022/07/21 01:34:51;;;;;;;11.13;7.93;;;22.30;99.90;;;;;;5051351;28;20687;-72
2022/07/21 01:37:28;;;;;;;10.98;7.57;;;22.20;99.90;;;;;;5051198;28;20029;-71
2022/07/21 01:42:39;;;;;;;9.00;6.82;;;22.30;99.90;;;;;;5051613;28;20036;-71
2022/07/21 01:45:06;;;;;;;9.98;7.28;;;22.30;99.90;;;;;;5051118;28;20029;-71
2022/07/21 01:47:33;;;;;;;9.23;6.95;;;22.20;99.90;;;;;;5051028;28;20021;-71
2022/07/21 01:49:59;;;;;;;11.80;7.90;;;22.20;99.90;;;;;;5051087;28;20029;-71
2022/07/21 01:52:25;;;;;;;11.45;7.38;;;22.20;99.90;;;;;;5051284;28;20052;-71
2022/07/21 01:54:51;;;;;;;11.98;7.50;;;22.20;99.90;;;;;;5051480;28;20433;-71
2022/07/21 01:57:17;;;;;;;10.40;7.15;;;22.20;99.90;;;;;;5050963;28;20032;-71
2022/07/21 01:59:44;;;;;;;10.88;7.70;;;22.20;99.90;;;;;;5050814;28;20496;-71
2022/07/21 02:02:10;;;;;;;10.73;8.00;;;22.20;99.90;;;;;;5050873;28;20114;-72
2022/07/21 02:04:36;;;;;;;10.45;7.63;;;22.20;99.90;;;;;;5050979;28;20090;-71
2022/07/21 02:07:03;;;;;;;9.82;7.63;;;22.20;99.90;;;;;;5050678;28;20404;-71
2022/07/21 02:09:29;;;;;;;12.18;7.55;;;22.10;99.90;;;;;;5050661;28;20041;-72
2022/07/21 02:11:55;;;;;;;10.73;7.85;;;22.10;99.90;;;;;;5050955;28;20514;-71
2022/07/21 02:14:21;;;;;;;10.40;7.93;;;22.20;99.90;;;;;;5050669;28;20025;-72
2022/07/21 02:16:47;;;;;;;8.82;7.20;;;22.10;99.90;;;;;;5050503;28;20508;-71
2022/07/21 02:19:13;;;;;;;10.15;7.60;;;22.10;99.90;;;;;;5050445;28;20036;-71
2022/07/21 02:21:38;;;;;;;10.43;7.93;;;22.10;99.90;;;;;;5050670;28;20033;-71
2022/07/21 02:24:05;;;;;;;12.50;7.68;;;22.00;99.90;;;;;;5050786;28;20021;-72
2022/07/21 02:26:32;;;;;;;10.55;7.60;;;22.00;99.90;;;;;;5050642;28;20029;-71
2022/07/21 02:28:58;;;;;;;14.65;8.13;;;22.00;99.90;;;;;;5050876;28;20478;-71
2022/07/21 02:31:23;;;;;;;12.98;7.88;;;21.90;99.90;;;;;;5051061;28;20179;-71
2022/07/21 02:33:49;;;;;;;11.50;7.75;;;21.90;99.90;;;;;;5050657;28;20029;-71
2022/07/21 02:36:15;;;;;;;9.07;7.20;;;21.90;99.90;;;;;;5050533;28;20025;-72
2022/07/21 02:38:41;;;;;;;9.60;6.88;;;21.90;99.90;;;;;;5049344;28;20479;-72
2022/07/21 02:41:07;;;;;;;9.80;7.55;;;21.80;99.90;;;;;;5050598;28;20025;-71
2022/07/21 02:43:33;;;;;;;10.27;7.65;;;21.80;99.90;;;;;;5050437;28;20025;-71
2022/07/21 02:45:59;;;;;;;10.00;7.97;;;21.80;99.90;;;;;;5050610;28;20454;-71
2022/07/21 02:48:25;;;;;;;11.32;7.80;;;21.80;99.90;;;;;;5050616;28;20029;-72
2022/07/21 02:50:50;;;;;;;9.77;7.80;;;21.70;99.90;;;;;;5050307;28;20052;-71
2022/07/21 02:53:19;;;;;;;11.77;7.95;;;21.80;99.90;;;;;;5050392;28;20592;-71
2022/07/21 02:55:47;;;;;;;10.63;8.30;;;21.80;99.90;;;;;;5050411;28;20120;-71
2022/07/21 02:58:27;;;;;;;13.07;8.38;;;21.70;99.90;;;;;;5050363;28;20384;-71
2022/07/21 03:01:01;;;;;;;11.98;7.93;;;21.70;99.90;;;;;;5050434;28;20147;-71
2022/07/21 03:03:31;;;;;;;10.50;7.80;;;21.70;99.90;;;;;;5050422;28;20113;-72
2022/07/21 03:05:57;;;;;;;10.07;7.68;;;21.70;99.90;;;;;;5048940;28;20048;-72
2022/07/21 03:08:25;;;;;;;10.02;7.22;;;21.70;99.90;;;;;;5050366;28;20025;-72
2022/07/21 03:10:51;;;;;;;9.77;7.22;;;21.80;99.90;;;;;;5049954;28;20032;-71
2022/07/21 03:13:18;;;;;;;9.85;7.47;;;21.80;99.90;;;;;;5050417;28;20060;-71
2022/07/21 03:15:44;;;;;;;8.40;6.95;;;21.80;99.90;;;;;;5050168;28;20055;-71
2022/07/21 03:18:10;;;;;;;9.35;7.22;;;21.90;99.90;;;;;;5048884;28;20545;-71
2022/07/21 03:20:38;;;;;;;11.13;8.18;;;21.80;99.90;;;;;;5053479;28;20033;-72
2022/07/21 03:23:04;;;;;;;8.88;7.25;;;21.80;99.90;;;;;;5053893;28;20021;-71
2022/07/21 03:25:30;;;;;;;9.23;6.80;;;21.80;99.90;;;;;;5053732;28;20094;-71
2022/07/21 03:27:56;;;;;;;10.35;7.20;;;21.90;99.90;;;;;;5053592;28;20477;-71
2022/07/21 03:30:23;;;;;;;9.82;7.15;;;21.90;99.90;;;;;;5053328;28;20029;-71
2022/07/21 03:32:50;;;;;;;8.82;6.78;;;21.90;99.90;;;;;;5053754;28;20082;-71
2022/07/21 03:35:16;;;;;;;7.80;6.28;;;21.90;99.90;;;;;;5053509;28;20025;-71
2022/07/21 03:37:56;;;;;;;9.23;6.97;;;21.90;99.90;;;;;;5053541;28;20584;-71
2022/07/21 03:40:25;;;;;;;8.32;6.68;;;22.00;99.90;;;;;;5053529;28;20025;-71
2022/07/21 03:42:52;;;;;;;9.82;7.43;;;22.00;99.90;;;;;;5053476;28;20498;-70
2022/07/21 03:45:18;;;;;;;10.13;7.70;;;21.90;99.90;;;;;;5053456;28;20055;-71
2022/07/21 03:47:44;;;;;;;12.00;8.20;;;21.80;99.90;;;;;;5053296;28;20024;-71
2022/07/21 03:50:11;;;;;;;11.13;7.40;;;21.80;99.90;;;;;;5053046;28;20033;-71
2022/07/21 03:52:38;;;;;;;9.30;7.38;;;21.80;99.90;;;;;;5053182;28;20117;-71
2022/07/21 03:55:14;;;;;;;9.32;7.70;;;21.80;99.90;;;;;;5053229;28;20025;-71
2022/07/21 03:57:51;;;;;;;9.38;7.18;;;21.80;99.90;;;;;;5053078;28;20112;-71
2022/07/21 04:00:21;;;;;;;12.07;7.43;;;21.80;99.90;;;;;;5052899;28;20485;-71
2022/07/21 04:02:47;;;;;;;9.98;7.68;;;21.80;99.90;;;;;;5053126;28;20422;-71
2022/07/21 04:05:15;;;;;;;11.32;7.70;;;21.70;99.90;;;;;;5052929;28;20036;-72
2022/07/21 04:07:44;;;;;;;10.83;7.67;;;21.80;99.90;;;;;;5052918;28;20028;-71
2022/07/21 04:10:12;;;;;;;10.43;8.02;;;21.70;99.90;;;;;;5052764;28;20421;-71
2022/07/21 04:12:38;;;;;;;10.60;8.27;;;21.70;99.90;;;;;;5052825;28;20020;-71
2022/07/21 04:15:06;;;;;;;11.43;8.32;;;21.70;99.90;;;;;;5052918;28;20029;-71
2022/07/21 04:17:32;;;;;;;11.48;9.13;;;21.70;99.90;;;;;;5051400;28;20025;-71
2022/07/21 04:19:58;;;;;;;9.27;7.80;;;21.80;99.90;;;;;;5052731;28;20027;-71
2022/07/21 04:22:24;;;;;;;11.07;8.68;;;21.80;99.90;;;;;;5052706;28;20103;-71
2022/07/21 04:24:50;;;;;;;13.00;8.77;;;21.70;99.90;;;;;;5052692;28;20033;-71
2022/07/21 04:27:16;;;;;;;12.02;9.00;;;21.70;99.90;;;;;;5052543;28;20064;-71
2022/07/21 04:29:42;;;;;;;14.20;8.35;;;21.70;99.90;;;;;;5050796;28;20063;-71
2022/07/21 04:32:08;;;;;;;10.57;8.10;;;21.70;99.90;;;;;;5051792;28;20057;-71
2022/07/21 04:34:34;;;;;;;11.30;8.63;;;21.70;99.90;;;;;;5052458;28;20258;-72
2022/07/21 04:37:00;;;;;;;12.00;8.60;;;21.70;99.90;;;;;;5052499;28;20033;-71
2022/07/21 04:39:26;;;;;;;12.00;8.68;;;21.70;99.90;;;;;;5052209;28;20023;-71
2022/07/21 04:41:51;;;;;;;10.88;9.15;;;21.70;99.90;;;;;;5052304;28;20409;-71
2022/07/21 04:44:17;;;;;;;10.23;7.90;;;21.60;99.90;;;;;;5052246;28;20037;-71
2022/07/21 04:46:43;;;;;;;11.57;9.25;;;21.60;99.90;;;;;;5052146;28;20033;-71
2022/07/21 04:49:09;;;;;;;11.82;8.48;;;21.70;99.90;;;;;;5051935;28;20029;-71
2022/07/21 04:51:35;;;;;;;10.70;8.55;;;21.60;99.90;;;;;;5052037;28;20036;-71
2022/07/21 04:54:01;;;;;;;10.90;8.93;;;21.70;99.90;;;;;;5052195;28;20385;-71
2022/07/21 04:56:27;;;;;;;10.43;8.27;;;21.60;99.90;;;;;;5051899;28;20061;-71
2022/07/21 04:58:53;;;;;;;12.90;9.27;;;21.60;99.90;;;;;;5051860;28;20025;-71
2022/07/21 05:01:19;;;;;;;9.32;8.05;;;21.70;99.90;;;;;;5050531;28;20040;-70
2022/07/21 05:03:45;;;;;;;11.45;8.65;;;21.70;99.90;;;;;;5051824;28;20508;-71
2022/07/21 05:06:12;;;;;;;12.18;9.07;;;21.70;99.90;;;;;;5050484;28;20067;-71
2022/07/21 05:08:38;;;;;;;12.25;8.60;;;21.60;99.90;;;;;;5051685;28;20036;-71
2022/07/21 05:11:04;;;;;;;17.50;9.60;;;21.60;99.90;;;;;;5051594;28;20223;-71
2022/07/21 05:13:30;;;;;;;11.73;9.50;;;21.70;99.90;;;;;;5051716;28;20035;-70
2022/07/21 05:15:55;;;;;;;12.10;9.85;;;21.60;99.90;;;;;;5051871;28;20033;-71
2022/07/21 05:18:21;;;;;;;14.10;9.00;;;21.70;99.90;;;;;;5051461;28;20476;-70
2022/07/21 05:20:47;;;;;;;13.88;10.35;;;21.70;99.90;;;;;;5051334;28;20028;-71
2022/07/21 05:23:13;;;;;;;14.25;9.93;;;21.70;99.90;;;;;;5051745;28;20024;-71
2022/07/21 05:25:39;;;;;;;11.02;8.68;;;21.70;99.90;;;;;;5051391;28;20366;-70
2022/07/21 05:28:08;;;;;;;11.95;9.15;;;21.70;99.90;;;;;;5051359;28;20040;-71
2022/07/21 05:30:35;;;;;;;12.25;9.68;;;21.70;99.90;;;;;;5051537;28;20501;-70
2022/07/21 05:33:01;;;;;;;12.65;8.68;;;21.70;99.90;;;;;;5051359;28;20064;-71
2022/07/21 05:35:27;;;;;;;12.10;9.20;;;21.60;99.90;;;;;;5051253;28;20083;-70
2022/07/21 05:37:53;;;;;;;10.85;8.95;;;21.60;99.90;;;;;;5051085;28;20474;-69
2022/07/21 05:40:19;;;;;;;10.77;8.43;;;21.60;99.90;;;;;;5050865;28;20036;-71
2022/07/21 05:42:45;;;;;;;12.10;9.23;;;21.60;99.90;;;;;;5050999;28;20056;-71
2022/07/21 05:45:11;;;;;;;10.95;8.18;;;21.60;99.90;;;;;;5051146;28;20056;-71
2022/07/21 05:47:38;;;;;;;12.48;8.82;;;21.60;99.90;;;;;;5049952;28;20032;-70
2022/07/21 05:50:04;;;;;;;12.50;9.35;;;21.60;99.90;;;;;;5050883;28;20025;-71
2022/07/21 05:52:30;;;;;;;12.25;9.60;;;21.60;99.90;;;;;;5051527;28;20036;-71
2022/07/21 05:54:56;;;;;;;12.23;9.30;;;21.60;99.90;;;;;;5051168;28;20033;-71
2022/07/21 05:57:22;;;;;;;12.77;9.25;;;21.60;99.90;;;;;;5050873;28;20043;-70
2022/07/21 05:59:48;;;;;;;12.60;8.95;;;21.60;99.90;;;;;;5050748;28;20025;-71
2022/07/21 06:02:14;;;;;;;12.45;9.23;;;21.50;99.90;;;;;;5050996;28;20025;-70
2022/07/21 06:04:40;;;;;;;14.95;10.18;;;21.50;99.90;;;;;;5050976;28;20033;-70
2022/07/21 06:07:06;;;;;;;13.52;9.90;;;21.60;99.90;;;;;;5051195;28;20391;-70
2022/07/21 06:09:32;;;;;;;13.90;11.20;;;21.60;99.90;;;;;;5050420;28;20046;-71
2022/07/21 06:11:58;;;;;;;12.35;9.73;;;21.60;99.90;;;;;;5099237;23;20040;-71
2022/07/21 06:14:25;;;;;;;13.95;10.07;;;21.60;99.90;;;;;;5091070;28;20032;-70
2022/07/21 06:16:50;;;;;;;13.30;9.13;;;21.70;99.90;;;;;;5090954;28;20036;-71
2022/07/21 06:19:17;;;;;;;17.83;9.50;;;21.70;99.90;;;;;;5089721;28;20085;-72
2022/07/21 06:21:43;;;;;;;12.38;9.32;;;21.80;99.90;;;;;;5090099;28;20432;-70
2022/07/21 06:24:09;;;;;;;11.43;9.02;;;21.70;99.90;;;;;;5090998;28;20028;-70
2022/07/21 06:26:36;;;;;;;13.32;9.35;;;21.80;99.90;;;;;;5091031;28;20040;-70
2022/07/21 06:29:02;;;;;;;13.23;8.65;;;21.80;99.90;;;;;;5089772;28;20377;-70
2022/07/21 06:31:27;;;;;;;14.70;9.70;;;21.80;99.90;;;;;;5091143;28;20090;-72
2022/07/21 06:33:53;;;;;;;13.70;8.73;;;21.90;99.90;;;;;;5091044;28;20056;-71
2022/07/21 06:36:19;;;;;;;12.63;9.38;;;21.90;99.90;;;;;;5089489;28;20384;-70
2022/07/21 06:38:45;;;;;;;12.18;8.07;;;21.90;99.90;;;;;;5089461;28;20031;-71
2022/07/21 06:41:12;;;;;;;12.23;8.80;;;22.00;99.90;;;;;;5090847;28;20020;-71
2022/07/21 06:43:38;;;;;;;15.80;9.23;;;22.00;99.90;;;;;;5090862;28;20032;-71
2022/07/21 06:46:04;;;;;;;12.18;8.98;;;22.10;99.90;;;;;;5090631;28;20400;-71
2022/07/21 06:48:30;;;;;;;12.50;8.05;;;22.10;99.90;;;;;;5090827;28;20047;-70
2022/07/21 06:50:57;;;;;;;12.07;8.18;;;22.10;99.90;;;;;;5090912;28;20035;-71
2022/07/21 06:53:24;;;;;;;12.48;8.20;;;22.10;99.90;;;;;;5090900;28;20396;-71
2022/07/21 06:55:52;;;;;;;11.73;8.57;;;22.10;99.90;;;;;;5094820;28;20471;-71
2022/07/21 06:58:24;;;;;;;12.27;8.20;;;22.20;99.90;;;;;;5095177;28;20487;-71
2022/07/21 07:00:50;;;;;;;11.80;8.40;;;22.20;99.90;;;;;;5094691;28;20028;-71
2022/07/21 07:03:17;;;;;;;12.60;7.90;;;22.20;99.90;;;;;;5094653;28;20488;-70
2022/07/21 07:05:45;;;;;;;11.00;7.32;;;22.20;99.90;;;;;;5094757;28;20387;-70
2022/07/21 07:08:11;;;;;;;12.80;7.93;;;22.20;99.90;;;;;;5094477;28;20028;-72
2022/07/21 07:10:38;;;;;;;13.63;8.82;;;22.20;99.90;;;;;;5094270;28;20051;-70
2022/07/21 07:13:04;;;;;;;11.07;7.50;;;22.20;99.90;;;;;;5094481;28;20101;-69
2022/07/21 07:15:30;;;;;;;12.55;8.23;;;22.20;99.90;;;;;;5094274;28;20039;-70
2022/07/21 07:17:56;;;;;;;11.73;7.50;;;22.10;99.90;;;;;;5093053;28;20030;-70
2022/07/21 07:20:23;;;;;;;11.88;8.00;;;22.10;99.90;;;;;;5094231;28;20070;-70
2022/07/21 07:22:49;;;;;;;10.35;7.55;;;22.10;99.90;;;;;;5094378;28;20086;-70
2022/07/21 07:25:17;;;;;;;11.85;7.82;;;22.10;99.90;;;;;;5094123;28;20422;-70
2022/07/21 07:27:48;;;;;;;11.57;6.82;;;22.10;99.90;;;;;;5094140;28;20380;-70
2022/07/21 07:30:14;;;;;;;10.15;6.82;;;22.10;99.90;;;;;;5092753;28;20032;-69
2022/07/21 07:32:41;;;;;;;8.90;6.80;;;22.20;99.90;;;;;;5092776;28;20032;-70
2022/07/21 07:35:10;;;;;;;10.93;6.60;;;22.20;99.90;;;;;;5094040;28;20032;-70
2022/07/21 07:37:37;;;;;;;8.95;6.15;;;22.20;99.90;;;;;;5093771;28;20434;-69
2022/07/21 07:40:07;;;;;;;10.77;6.18;;;22.20;99.90;;;;;;5093746;28;20043;-70
2022/07/21 07:42:36;;;;;;;9.02;6.10;;;22.20;99.90;;;;;;5093988;28;20084;-70
2022/07/21 07:45:04;;;;;;;11.52;6.25;;;22.20;99.90;;;;;;5094153;28;20036;-69
2022/07/21 07:47:30;;;;;;;9.35;5.95;;;22.20;99.90;;;;;;5092368;28;20039;-70
2022/07/21 07:49:59;;;;;;;11.23;6.13;;;22.20;99.90;;;;;;5093467;28;20024;-70
2022/07/21 07:52:26;;;;;;;7.90;5.07;;;22.20;99.90;;;;;;5092522;28;20135;-70
2022/07/21 07:54:51;;;;;;;9.48;5.13;;;22.20;99.90;;;;;;5092223;28;20294;-69
2022/07/21 07:57:17;;;;;;;8.77;4.72;;;22.30;99.90;;;;;;5093753;28;20539;-70
2022/07/21 07:59:43;;;;;;;8.40;5.03;;;22.30;99.90;;;;;;5093629;28;20149;-69
2022/07/21 08:02:09;;;;;;;7.65;4.97;;;22.30;99.90;;;;;;5093695;28;20035;-69
2022/07/21 08:04:35;;;;;;;9.93;5.40;;;22.30;99.90;;;;;;5093465;28;20020;-69
2022/07/21 08:07:02;;;;;;;8.73;5.53;;;22.40;99.90;;;;;;5093355;28;20492;-69
2022/07/21 08:09:28;;;;;;;8.00;5.18;;;22.40;99.90;;;;;;5093170;28;20059;-70
2022/07/21 08:11:54;;;;;;;9.25;5.78;;;22.40;99.90;;;;;;5093516;28;20085;-70
2022/07/21 08:14:20;;;;;;;8.65;5.90;;;22.40;99.90;;;;;;5092057;28;20093;-69
2022/07/21 08:16:46;;;;;;;9.65;5.70;;;22.50;99.90;;;;;;5091671;28;20480;-71
2022/07/21 08:19:12;;;;;;;11.02;5.72;;;22.50;99.90;;;;;;5091781;28;20060;-70
2022/07/21 08:21:38;;;;;;;10.82;5.30;;;22.50;99.90;;;;;;5093276;28;20024;-69
2022/07/21 08:24:04;;;;;;;10.80;5.55;;;22.60;99.90;;;;;;5091974;28;20028;-69
2022/07/21 08:26:30;;;;;;;9.40;5.68;;;22.60;99.90;;;;;;5093053;28;20034;-69
2022/07/21 08:28:57;;;;;;;9.35;5.00;;;22.70;99.90;;;;;;5092723;28;20119;-70
2022/07/21 08:31:23;;;;;;;10.02;4.72;;;22.70;99.90;;;;;;5092888;28;20039;-70
2022/07/21 08:33:51;;;;;;;7.43;4.93;;;22.60;99.90;;;;;;5092932;28;20119;-70
2022/07/21 08:36:18;;;;;;;9.13;4.90;;;22.70;99.90;;;;;;5091475;28;20032;-71
2022/07/21 08:38:45;;;;;;;9.38;5.10;;;22.70;99.90;;;;;;5091265;28;20028;-69
2022/07/21 08:41:11;;;;;;;11.57;5.57;;;22.70;99.40;;;;;;5093028;28;20499;-69
2022/07/21 08:43:37;;;;;;;9.05;5.05;;;22.80;99.30;;;;;;5091788;28;20466;-69
2022/07/21 08:46:04;;;;;;;10.15;4.72;;;22.80;99.30;;;;;;5092659;28;20028;-70
2022/07/21 08:48:29;;;;;;;6.45;5.05;;;22.90;99.40;;;;;;5092443;28;20040;-71
2022/07/21 08:50:57;;;;;;;7.75;5.22;;;23.00;99.70;;;;;;5092634;28;20027;-70
2022/07/21 08:53:24;;;;;;;10.38;6.47;;;23.00;99.60;;;;;;5092881;28;20548;-70
2022/07/21 08:55:50;;;;;;;9.02;5.45;;;23.10;99.60;;;;;;5092340;28;20060;-71
2022/07/21 08:58:16;;;;;;;7.32;5.10;;;23.10;99.60;;;;;;5092330;28;20067;-70
2022/07/21 09:00:45;;;;;;;8.75;5.45;;;23.10;99.60;;;;;;5092426;28;20408;-70
2022/07/21 09:03:27;;;;;;;8.40;5.50;;;23.10;99.30;;;;;;5092236;28;20028;-70
2022/07/21 09:06:07;;;;;;;10.60;5.50;;;23.00;99.40;;;;;;5092151;28;20433;-70
2022/07/21 09:08:44;;;;;;;9.50;5.75;;;23.00;99.70;;;;;;5090686;28;20172;-69
2022/07/21 09:11:43;;;;;;;6.95;5.28;;;23.00;99.80;;;;;;5091015;28;20040;-69
2022/07/21 09:14:12;;;;;;;11.95;5.72;;;23.00;99.90;;;;;;5080872;28;20071;-70
2022/07/21 09:16:43;;;;;;;;;;;23.00;99.30;;;;;;5090673;28;20032;-69
2022/07/21 09:19:26;;;;;;;9.20;5.32;;;23.00;98.90;;;;;;5092070;28;19912;-69
2022/07/21 09:21:57;;;;;;;10.27;5.53;;;23.10;99.10;;;;;;5090735;28;20113;-71
2022/07/21 09:24:49;;;;;;;8.45;5.97;;;23.20;98.80;;;;;;5091973;28;20089;-70
2022/07/21 09:27:23;;;;;;;8.25;5.43;;;23.20;98.40;;;;;;5091888;28;20028;-70
2022/07/21 09:29:53;;;;;;;8.13;5.53;;;23.30;98.30;;;;;;5091826;28;20020;-70
2022/07/21 09:32:34;;;;;;;7.82;5.72;;;23.40;97.80;;;;;;5091836;28;20028;-69
2022/07/21 09:35:01;;;;;;;10.02;5.60;;;23.40;97.70;;;;;;5091800;28;20071;-70
2022/07/21 09:37:27;;;;;;;6.85;5.85;;;23.30;97.40;;;;;;5091608;28;20044;-70
2022/07/21 09:39:59;;;;;;;8.23;5.50;;;23.40;97.50;;;;;;5091690;28;20496;-70
2022/07/21 09:42:35;;;;;;;7.75;5.70;;;23.40;97.60;;;;;;5091572;28;20077;-70
2022/07/21 09:45:08;;;;;;;11.38;6.15;;;23.40;98.10;;;;;;5091543;28;20036;-70
2022/07/21 09:47:34;;;;;;;11.68;6.60;;;23.40;97.50;;;;;;5091406;28;20115;-70
2022/07/21 09:50:02;;;;;;;15.07;6.60;;;23.40;97.50;;;;;;5091257;28;20061;-71
2022/07/21 09:52:39;;;;;;;10.10;6.40;;;23.40;97.10;;;;;;5091477;28;20476;-70
2022/07/21 09:55:08;;;;;;;10.73;5.95;;;23.40;96.90;;;;;;5091464;28;20395;-71
2022/07/21 09:57:35;;;;;;;9.93;5.78;;;23.40;97.20;;;;;;5091349;28;20380;-70
2022/07/21 10:00:04;;;;;;;10.05;5.72;;;23.40;97.50;;;;;;5091248;28;20498;-70
2022/07/21 10:02:31;;;;;;;9.40;5.68;;;23.30;97.50;;;;;;5090463;28;20438;-71
2022/07/21 10:05:06;;;;;;;10.27;6.07;;;23.30;97.60;;;;;;5091257;28;20059;-69
2022/07/21 10:07:34;;;;;;;9.95;5.88;;;23.20;97.60;;;;;;5091299;28;20081;-71
2022/07/21 10:10:03;;;;;;;;;;;23.20;97.40;;;;;;5091240;28;20032;-70
2022/07/21 10:12:29;;;;;;;9.45;5.90;;;23.10;97.60;;;;;;5090095;28;19912;-70
2022/07/21 10:14:55;;;;;;;11.10;6.43;;;22.90;98.00;;;;;;5091137;28;20047;-71
2022/07/21 10:17:23;;;;;;;9.55;6.50;;;22.80;98.60;;;;;;5091092;28;20028;-71
2022/07/21 10:20:21;;;;;;;10.50;6.80;;;22.70;99.10;;;;;;5090811;28;20028;-71
2022/07/21 10:23:10;;;;;;;12.03;7.17;;;22.60;99.90;;;;;;5091113;28;20024;-71
2022/07/21 10:25:36;;;;;;;15.20;7.47;;;22.60;99.90;;;;;;5091479;28;20030;-71
2022/07/21 10:28:29;;;;;;;14.23;8.82;;;22.50;99.90;;;;;;5091025;28;20043;-71
2022/07/21 10:30:56;;;;;;;14.05;8.68;;;22.40;99.90;;;;;;5092398;28;20050;-71
2022/07/21 10:33:42;;;;;;;15.80;9.48;;;22.30;99.90;;;;;;5095276;28;20024;-70
2022/07/21 10:36:10;;;;;;;12.70;8.85;;;22.20;99.90;;;;;;5094990;28;20140;-71
2022/07/21 10:38:36;;;;;;;14.52;9.82;;;22.10;99.90;;;;;;5093749;28;20024;-71
2022/07/21 10:41:05;;;;;;;14.07;9.63;;;22.00;99.90;;;;;;5093759;28;20107;-70
2022/07/21 10:43:31;;;;;;;13.05;8.68;;;22.00;99.90;;;;;;5095067;28;20050;-71
2022/07/21 10:45:59;;;;;;;11.68;8.63;;;22.00;99.90;;;;;;5094949;28;20492;-71
2022/07/21 10:48:36;;;;;;;14.88;9.88;;;21.90;99.90;;;;;;5095252;28;20074;-71
2022/07/21 10:51:24;;;;;;;16.15;10.25;;;21.90;99.90;;;;;;5095338;28;20024;-70
2022/07/21 10:54:16;;;;;;;14.18;9.18;;;21.90;99.90;;;;;;5094899;28;20028;-71
2022/07/21 10:56:42;;;;;;;14.38;9.07;;;21.90;99.90;;;;;;5094674;28;20084;-71
2022/07/21 10:59:07;;;;;;;15.38;9.57;;;21.80;99.90;;;;;;5094613;28;20036;-70
2022/07/21 11:01:35;;;;;;;12.38;9.02;;;21.80;99.90;;;;;;5094666;28;20082;-71
2022/07/21 11:04:17;;;;;;;15.30;10.55;;;21.80;99.90;;;;;;5094544;28;20513;-71
2022/07/21 11:06:44;;;;;;;14.50;10.68;;;21.80;99.90;;;;;;5094513;28;20114;-71
2022/07/21 11:09:15;;;;;;;15.57;11.70;;;21.70;99.90;;;;;;5094586;28;20112;-70
2022/07/21 11:11:47;;;;;;;19.90;11.70;;;21.70;99.90;;;;;;5094342;28;20051;-70
2022/07/21 11:14:18;;;;;;;16.13;11.45;;;21.70;99.90;;;;;;5094327;28;20048;-70
2022/07/21 11:19:35;;;;;;;17.10;11.40;;;21.80;99.90;;;;;;5094268;28;20028;-69
2022/07/21 11:22:22;;;;;;;17.75;11.60;;;21.70;99.90;;;;;;5094478;28;20020;-70
2022/07/21 11:25:00;;;;;;;15.98;10.70;;;21.70;99.90;;;;;;5093972;28;20427;-70
2022/07/21 11:27:29;;;;;;;16.30;12.13;;;21.70;99.90;;;;;;5094135;28;20052;-71
2022/07/21 11:29:58;;;;;;;16.10;10.52;;;21.70;99.90;;;;;;5093752;28;20105;-70
2022/07/21 11:32:26;;;;;;;12.75;9.30;;;21.70;99.90;;;;;;5094114;28;20035;-70
2022/07/21 11:34:53;;;;;;;12.50;9.77;;;21.70;99.90;;;;;;5094308;28;20074;-70
2022/07/21 11:37:35;;;;;;;13.95;9.77;;;21.70;99.90;;;;;;5094005;28;20035;-70
2022/07/21 11:40:02;;;;;;;12.02;9.35;;;21.70;99.90;;;;;;5093446;28;20103;-70
2022/07/21 11:42:30;;;;;;;13.13;9.68;;;21.60;99.90;;;;;;5092998;28;20024;-70
2022/07/21 11:44:57;;;;;;;14.45;9.85;;;21.60;99.90;;;;;;5093991;28;20525;-71
2022/07/21 11:47:27;;;;;;;14.18;9.75;;;21.60;99.90;;;;;;5093859;28;20438;-70
2022/07/21 11:49:54;;;;;;;15.50;10.63;;;21.60;99.90;;;;;;5093576;28;20431;-71
2022/07/21 11:52:25;;;;;;;16.65;11.38;;;21.60;99.90;;;;;;5094013;28;20020;-71
2022/07/21 11:54:53;;;;;;;14.95;10.70;;;21.60;99.90;;;;;;5093519;28;20039;-71
2022/07/21 11:57:21;;;;;;;12.90;9.98;;;21.50;99.90;;;;;;5093722;28;20028;-71
2022/07/21 11:59:48;;;;;;;9.88;8.23;;;21.60;99.90;;;;;;5093267;28;20032;-71
2022/07/21 12:02:20;;;;;;;9.82;7.85;;;21.60;99.90;;;;;;5093498;28;20039;-71
2022/07/21 12:05:04;;;;;;;9.70;7.00;;;21.60;99.90;;;;;;5093534;28;20024;-71
2022/07/21 12:07:41;;;;;;;10.40;7.57;;;21.60;99.90;;;;;;5092277;28;20023;-71
2022/07/21 12:13:13;;;;;;;9.43;7.13;;;21.60;99.90;;;;;;4991921;28;20418;-71
2022/07/21 12:15:41;;;;;;;9.68;7.30;;;21.60;99.90;;;;;;4993601;28;20026;-71
2022/07/21 12:18:25;;;;;;;12.40;7.93;;;21.60;99.90;;;;;;4993739;28;20031;-71
2022/07/21 12:21:01;;;;;;;10.55;7.60;;;21.50;99.90;;;;;;4993327;28;20031;-71
2022/07/21 12:23:30;;;;;;;10.23;7.65;;;21.60;99.90;;;;;;4993590;28;20048;-71
2022/07/21 12:26:00;;;;;;;11.07;8.05;;;21.60;99.90;;;;;;4993387;28;20034;-71
2022/07/21 12:28:46;;;;;;;10.32;8.55;;;21.50;99.90;;;;;;4993434;28;20026;-71
2022/07/21 12:31:20;;;;;;;10.65;8.50;;;21.50;99.90;;;;;;4993951;28;20205;-71
2022/07/21 12:33:47;;;;;;;16.13;11.32;;;21.50;99.90;;;;;;4993427;28;20495;-71
2022/07/21 12:36:13;;;;;;;11.45;9.00;;;21.50;99.90;;;;;;4993109;28;20034;-71
2022/07/21 12:38:43;;;;;;;14.70;8.98;;;21.50;99.90;;;;;;4993108;28;20044;-71
2022/07/21 12:41:11;;;;;;;12.18;7.72;;;21.50;99.90;;;;;;4993206;28;20501;-71
2022/07/21 12:43:37;;;;;;;7.25;5.97;;;21.50;99.90;;;;;;4993129;28;20030;-71
2022/07/21 12:46:16;;;;;;;8.57;5.22;;;21.50;99.90;;;;;;4992844;28;20525;-71
2022/07/21 12:48:43;;;;;;;6.97;4.63;;;21.50;99.90;;;;;;4992902;28;20059;-71
2022/07/21 12:51:12;;;;;;;6.63;4.70;;;21.50;99.90;;;;;;4991108;28;20058;-71
2022/07/21 12:53:40;;;;;;;5.63;4.38;;;21.50;99.90;;;;;;4992951;28;20022;-71
2022/07/21 12:56:06;;;;;;;4.90;4.18;;;21.50;99.90;;;;;;4992729;28;20034;-71